createdAt,value
2022-12-01T00:01:29.523Z,13.77
2022-12-01T00:03:31.509Z,12.77
2022-12-01T00:05:32.982Z,12.45
2022-12-01T00:07:34.405Z,13.07
2022-12-01T00:09:54.549Z,13.63
2022-12-01T00:11:56.013Z,12.73
2022-12-01T00:13:57.431Z,13.20
2022-12-01T00:15:59.003Z,13.07
2022-12-01T00:18:00.918Z,12.80
2022-12-01T00:20:02.289Z,11.65
2022-12-01T00:22:03.700Z,13.52
2022-12-01T00:24:05.193Z,13.25
2022-12-01T00:26:06.606Z,12.95
2022-12-01T00:28:07.900Z,13.25
2022-12-01T00:30:10.775Z,14.32
2022-12-01T00:32:12.226Z,14.80
2022-12-01T00:34:23.806Z,13.27
2022-12-01T00:36:25.157Z,14.90
2022-12-01T00:38:26.952Z,14.10
2022-12-01T00:40:28.371Z,14.20
2022-12-01T00:42:30.044Z,11.75
2022-12-01T00:44:31.380Z,11.93
2022-12-01T00:46:32.894Z,13.55
2022-12-01T00:48:34.478Z,13.40
2022-12-01T00:50:36.113Z,14.45
2022-12-01T00:52:37.475Z,12.02
2022-12-01T00:54:38.970Z,10.57
2022-12-01T00:56:40.398Z,11.63
2022-12-01T00:58:41.783Z,14.35
2022-12-01T01:00:43.249Z,15.73
2022-12-01T01:02:44.775Z,16.08
2022-12-01T01:04:46.235Z,13.85
2022-12-01T01:06:47.668Z,13.70
2022-12-01T01:08:49.098Z,13.00
2022-12-01T01:10:50.609Z,11.20
2022-12-01T01:12:52.019Z,12.82
2022-12-01T01:14:53.510Z,11.82
2022-12-01T01:16:56.480Z,14.30
2022-12-01T01:18:58.313Z,13.30
2022-12-01T01:21:01.285Z,15.57
2022-12-01T01:23:02.803Z,14.13
2022-12-01T01:25:04.313Z,12.57
2022-12-01T01:27:08.455Z,14.48
2022-12-01T01:29:09.880Z,13.98
2022-12-01T01:31:13.151Z,11.93
2022-12-01T01:33:14.585Z,11.68
2022-12-01T01:35:15.940Z,14.18
2022-12-01T01:37:17.361Z,11.52
2022-12-01T01:39:18.796Z,12.82
2022-12-01T01:41:20.805Z,15.85
2022-12-01T01:43:43.252Z,14.05
2022-12-01T01:45:44.782Z,12.25
2022-12-01T01:47:46.283Z,13.82
2022-12-01T01:49:47.837Z,14.00
2022-12-01T01:51:51.239Z,13.60
2022-12-01T01:53:55.016Z,14.15
2022-12-01T01:55:56.503Z,15.18
2022-12-01T01:57:57.905Z,14.48
2022-12-01T02:00:02.357Z,13.88
2022-12-01T02:02:06.176Z,15.68
2022-12-01T02:04:07.725Z,15.13
2022-12-01T02:06:09.697Z,15.25
2022-12-01T02:08:12.481Z,14.40
2022-12-01T02:10:14.948Z,13.77
2022-12-01T02:12:16.386Z,15.50
2022-12-01T02:17:14.339Z,15.65
2022-12-01T02:19:33.837Z,14.25
2022-12-01T02:21:35.184Z,16.35
2022-12-01T02:23:39.164Z,15.02
2022-12-01T02:26:02.831Z,16.23
2022-12-01T02:28:20.511Z,14.80
2022-12-01T02:30:40.673Z,15.90
2022-12-01T02:32:54.399Z,15.90
2022-12-01T02:34:55.789Z,15.32
2022-12-01T02:37:08.434Z,15.90
2022-12-01T02:39:17.242Z,13.90
2022-12-01T02:41:39.368Z,16.58
2022-12-01T02:43:45.780Z,15.43
2022-12-01T02:45:59.891Z,15.82
2022-12-01T02:48:02.667Z,17.15
2022-12-01T02:50:05.034Z,16.10
2022-12-01T02:52:06.756Z,16.05
2022-12-01T02:54:08.594Z,15.63
2022-12-01T02:56:12.028Z,17.80
2022-12-01T02:58:14.415Z,15.50
2022-12-01T03:00:16.670Z,17.35
2022-12-01T03:02:42.433Z,17.05
2022-12-01T03:05:04.693Z,15.60
2022-12-01T03:07:15.617Z,15.77
2022-12-01T03:11:27.352Z,15.32
2022-12-01T03:13:40.660Z,17.00
2022-12-01T03:15:53.884Z,16.67
2022-12-01T03:18:07.602Z,17.70
2022-12-01T03:20:09.162Z,16.27
2022-12-01T03:22:14.562Z,17.50
2022-12-01T03:24:20.209Z,17.70
2022-12-01T03:26:22.648Z,16.33
2022-12-01T03:28:28.784Z,18.00
2022-12-01T03:30:31.816Z,19.42
2022-12-01T03:32:35.465Z,18.55
2022-12-01T03:34:44.267Z,17.88
2022-12-01T03:36:48.113Z,18.55
2022-12-01T03:38:52.724Z,16.75
2022-12-01T03:40:56.810Z,16.42
2022-12-01T03:43:00.537Z,18.15
2022-12-01T03:45:05.069Z,18.38
2022-12-01T03:47:09.397Z,17.73
2022-12-01T03:49:10.918Z,18.00
2022-12-01T03:51:18.275Z,22.52
2022-12-01T03:53:23.734Z,18.08
2022-12-01T03:55:28.070Z,18.02
2022-12-01T03:57:31.654Z,20.08
2022-12-01T03:59:35.976Z,18.85
2022-12-01T04:01:37.583Z,21.52
2022-12-01T04:03:39.077Z,19.20
2022-12-01T04:05:40.501Z,17.80
2022-12-01T04:07:41.890Z,20.17
2022-12-01T04:09:43.457Z,21.85
2022-12-01T04:12:03.764Z,19.52
2022-12-01T04:14:05.150Z,18.67
2022-12-01T04:16:06.598Z,16.95
2022-12-01T04:18:08.092Z,16.67
2022-12-01T04:20:10.782Z,18.67
2022-12-01T04:22:12.112Z,20.20
2022-12-01T04:24:13.954Z,20.50
2022-12-01T04:26:16.046Z,19.10
2022-12-01T04:28:17.494Z,18.95
2022-12-01T04:30:19.088Z,20.40
2022-12-01T04:32:20.490Z,19.90
2022-12-01T04:34:21.850Z,20.50
2022-12-01T04:36:23.793Z,20.00
2022-12-01T04:38:30.260Z,18.50
2022-12-01T04:40:32.362Z,20.48
2022-12-01T04:42:33.825Z,20.52
2022-12-01T04:44:35.445Z,20.02
2022-12-01T04:46:37.366Z,21.73
2022-12-01T04:48:39.333Z,19.90
2022-12-01T04:50:41.436Z,19.15
2022-12-01T04:52:42.892Z,20.30
2022-12-01T04:54:44.344Z,20.17
2022-12-01T04:56:45.786Z,19.08
2022-12-01T04:58:47.348Z,20.08
2022-12-01T05:00:48.885Z,22.88
2022-12-01T05:02:50.419Z,19.70
2022-12-01T05:04:51.852Z,21.00
2022-12-01T05:06:54.448Z,20.90
2022-12-01T05:08:56.989Z,20.00
2022-12-01T05:10:58.361Z,18.85
2022-12-01T05:13:00.393Z,20.25
2022-12-01T05:15:01.825Z,19.60
2022-12-01T05:17:03.254Z,23.48
2022-12-01T05:19:24.611Z,19.95
2022-12-01T05:21:25.895Z,21.13
2022-12-01T05:23:28.983Z,18.88
2022-12-01T05:25:30.514Z,20.50
2022-12-01T05:27:31.878Z,18.70
2022-12-01T05:29:33.236Z,20.02
2022-12-01T05:31:34.683Z,19.40
2022-12-01T05:33:36.133Z,18.50
2022-12-01T05:35:37.754Z,20.75
2022-12-01T05:37:39.136Z,21.65
2022-12-01T05:39:40.514Z,21.80
2022-12-01T05:41:41.840Z,19.90
2022-12-01T05:43:43.190Z,21.75
2022-12-01T05:45:44.554Z,18.90
2022-12-01T05:47:45.903Z,20.75
2022-12-01T05:49:47.575Z,22.33
2022-12-01T05:51:49.150Z,20.52
2022-12-01T05:53:50.531Z,20.27
2022-12-01T05:55:54.775Z,20.15
2022-12-01T05:57:56.124Z,19.85
2022-12-01T05:59:57.502Z,21.08
2022-12-01T06:01:58.912Z,18.50
2022-12-01T06:04:00.426Z,23.60
2022-12-01T06:06:02.079Z,18.80
2022-12-01T06:08:03.472Z,19.45
2022-12-01T06:10:05.174Z,20.02
2022-12-01T06:12:06.708Z,23.00
2022-12-01T06:14:08.346Z,19.50
2022-12-01T06:16:09.677Z,19.70
2022-12-01T06:18:11.105Z,19.77
2022-12-01T06:20:12.886Z,20.58
2022-12-01T06:22:14.338Z,19.50
2022-12-01T06:24:15.683Z,21.70
2022-12-01T06:26:17.014Z,21.85
2022-12-01T06:28:18.807Z,20.98
2022-12-01T06:30:20.171Z,20.92
2022-12-01T06:32:21.600Z,19.63
2022-12-01T06:34:23.037Z,20.48
2022-12-01T06:36:24.458Z,23.13
2022-12-01T06:38:26.024Z,21.58
2022-12-01T06:40:27.524Z,19.67
2022-12-01T06:42:29.696Z,22.73
2022-12-01T06:44:31.111Z,19.45
2022-12-01T06:46:32.549Z,20.23
2022-12-01T06:48:34.542Z,26.70
2022-12-01T06:50:35.941Z,19.52
2022-12-01T06:52:37.548Z,18.65
2022-12-01T06:54:39.863Z,20.15
2022-12-01T06:56:42.988Z,20.05
2022-12-01T06:58:44.550Z,19.67
2022-12-01T07:00:51.780Z,20.50
2022-12-01T07:02:53.552Z,19.92
2022-12-01T07:04:55.014Z,20.33
2022-12-01T07:06:56.554Z,20.70
2022-12-01T07:08:58.046Z,22.65
2022-12-01T07:11:00.479Z,18.73
2022-12-01T07:13:01.802Z,18.23
2022-12-01T07:15:06.323Z,18.63
2022-12-01T07:17:07.966Z,18.85
2022-12-01T07:19:09.464Z,18.27
2022-12-01T07:21:12.205Z,19.20
2022-12-01T07:23:13.637Z,19.35
2022-12-01T07:25:15.304Z,18.90
2022-12-01T07:27:19.953Z,18.70
2022-12-01T07:29:21.812Z,18.27
2022-12-01T07:31:23.466Z,19.58
2022-12-01T07:33:25.044Z,18.75
2022-12-01T07:35:28.912Z,18.52
2022-12-01T07:37:30.364Z,18.42
2022-12-01T07:39:31.836Z,21.73
2022-12-01T07:41:33.503Z,19.95
2022-12-01T07:43:35.280Z,20.95
2022-12-01T07:45:36.810Z,21.55
2022-12-01T07:47:38.328Z,20.10
2022-12-01T07:49:43.697Z,19.02
2022-12-01T07:51:47.984Z,18.00
2022-12-01T07:53:49.974Z,20.00
2022-12-01T07:55:51.428Z,20.63
2022-12-01T07:57:53.612Z,20.88
2022-12-01T07:59:55.023Z,19.48
2022-12-01T08:01:56.487Z,19.52
2022-12-01T08:03:58.949Z,20.40
2022-12-01T08:06:01.192Z,19.83
2022-12-01T08:08:02.801Z,21.25
2022-12-01T08:10:04.388Z,21.88
2022-12-01T08:12:05.936Z,20.83
2022-12-01T08:14:07.539Z,17.15
2022-12-01T08:16:10.090Z,18.27
2022-12-01T08:18:11.726Z,18.75
2022-12-01T08:20:13.289Z,19.48
2022-12-01T08:22:14.724Z,19.42
2022-12-01T08:24:16.163Z,20.27
2022-12-01T08:26:18.877Z,19.65
2022-12-01T08:28:20.727Z,20.60
2022-12-01T08:30:22.641Z,19.83
2022-12-01T08:32:24.270Z,19.55
2022-12-01T08:34:25.907Z,17.35
2022-12-01T08:36:29.252Z,19.33
2022-12-01T08:38:30.916Z,17.98
2022-12-01T08:40:32.403Z,19.75
2022-12-01T08:42:35.633Z,16.13
2022-12-01T08:44:37.256Z,19.08
2022-12-01T08:46:38.783Z,18.80
2022-12-01T08:48:40.627Z,19.95
2022-12-01T08:50:42.015Z,19.02
2022-12-01T08:52:43.593Z,16.60
2022-12-01T08:54:44.907Z,21.15
2022-12-01T08:56:46.423Z,18.90
2022-12-01T08:58:48.032Z,20.67
2022-12-01T09:00:51.822Z,20.38
2022-12-01T09:02:53.306Z,23.77
2022-12-01T09:04:55.439Z,18.67
2022-12-01T09:06:57.771Z,18.92
2022-12-01T09:09:00.241Z,17.85
2022-12-01T09:11:09.862Z,18.30
2022-12-01T09:13:11.337Z,20.58
2022-12-01T09:15:28.508Z,18.67
2022-12-01T09:17:35.762Z,19.42
2022-12-01T09:19:37.145Z,19.40
2022-12-01T09:21:38.562Z,20.25
2022-12-01T09:23:40.297Z,20.02
2022-12-01T09:25:41.732Z,20.08
2022-12-01T09:27:43.399Z,23.73
2022-12-01T09:29:44.754Z,24.48
2022-12-01T09:31:46.271Z,22.58
2022-12-01T09:33:49.777Z,23.38
2022-12-01T09:35:53.532Z,20.38
2022-12-01T09:37:55.058Z,19.02
2022-12-01T09:39:56.403Z,21.20
2022-12-01T09:42:05.002Z,19.58
2022-12-01T09:44:14.035Z,22.48
2022-12-01T09:46:20.189Z,20.25
2022-12-01T09:48:26.615Z,20.67
2022-12-01T09:50:30.180Z,21.10
2022-12-01T09:52:47.176Z,21.95
2022-12-01T09:54:48.885Z,19.75
2022-12-01T09:56:53.223Z,20.58
2022-12-01T09:59:01.644Z,21.80
2022-12-01T10:01:03.121Z,19.73
2022-12-01T10:03:17.245Z,19.88
2022-12-01T10:05:20.253Z,20.15
2022-12-01T10:07:27.288Z,20.77
2022-12-01T10:09:44.549Z,20.33
2022-12-01T10:11:46.725Z,21.17
2022-12-01T10:13:48.324Z,19.52
2022-12-01T10:15:54.907Z,20.45
2022-12-01T10:18:11.383Z,20.10
2022-12-01T10:20:19.841Z,19.25
2022-12-01T10:22:24.445Z,22.20
2022-12-01T10:24:37.971Z,19.00
2022-12-01T10:26:58.129Z,21.65
2022-12-01T10:28:59.507Z,19.80
2022-12-01T10:31:06.874Z,21.20
2022-12-01T10:33:24.626Z,21.45
2022-12-01T10:35:29.280Z,23.23
2022-12-01T10:37:31.344Z,22.08
2022-12-01T10:39:36.542Z,21.92
2022-12-01T10:41:39.419Z,20.23
2022-12-01T10:43:51.955Z,21.63
2022-12-01T10:45:53.806Z,20.27
2022-12-01T10:48:09.480Z,21.73
2022-12-01T10:50:25.588Z,19.63
2022-12-01T10:52:31.643Z,16.95
2022-12-01T10:54:40.077Z,26.90
2022-12-01T10:56:42.700Z,23.65
2022-12-01T10:58:48.021Z,22.92
2022-12-01T11:01:00.751Z,23.40
2022-12-01T11:03:03.030Z,23.58
2022-12-01T11:05:06.009Z,21.83
2022-12-01T11:07:07.496Z,20.80
2022-12-01T11:09:25.810Z,21.52
2022-12-01T11:11:30.149Z,19.90
2022-12-01T11:13:34.133Z,19.75
2022-12-01T11:15:49.043Z,17.77
2022-12-01T11:17:57.459Z,19.90
2022-12-01T11:19:59.448Z,24.13
2022-12-01T11:22:19.854Z,19.55
2022-12-01T11:24:40.984Z,18.42
2022-12-01T11:26:42.403Z,17.88
2022-12-01T11:28:51.857Z,16.98
2022-12-01T11:31:01.147Z,20.83
2022-12-01T11:33:03.817Z,20.05
2022-12-01T11:35:12.229Z,18.35
2022-12-01T11:37:17.331Z,20.20
2022-12-01T11:39:37.593Z,19.30
2022-12-01T11:41:42.750Z,22.33
2022-12-01T11:43:50.541Z,21.80
2022-12-01T11:45:59.857Z,21.05
2022-12-01T11:48:05.957Z,19.67
2022-12-01T11:50:23.257Z,24.23
2022-12-01T11:52:32.410Z,19.90
2022-12-01T11:54:34.073Z,20.38
2022-12-01T11:56:35.487Z,20.95
2022-12-01T11:58:36.929Z,23.50
2022-12-01T12:00:45.795Z,22.88
2022-12-01T12:02:53.413Z,22.00
2022-12-01T12:04:57.809Z,23.42
2022-12-01T12:07:16.670Z,21.40
2022-12-01T12:09:44.765Z,21.48
2022-12-01T12:11:46.762Z,23.42
2022-12-01T12:14:07.055Z,23.98
2022-12-01T12:16:19.684Z,20.63
2022-12-01T12:18:23.939Z,20.55
2022-12-01T12:20:35.859Z,21.05
2022-12-01T12:22:46.913Z,23.65
2022-12-01T12:25:00.348Z,23.17
2022-12-01T12:27:13.893Z,22.60
2022-12-01T12:29:30.163Z,23.02
2022-12-01T12:31:39.507Z,25.90
2022-12-01T12:33:46.808Z,22.20
2022-12-01T12:36:04.618Z,22.73
2022-12-01T12:38:28.224Z,23.13
2022-12-01T12:40:48.533Z,20.58
2022-12-01T12:42:56.037Z,23.00
2022-12-01T12:45:15.118Z,21.52
2022-12-01T12:47:34.892Z,21.80
2022-12-01T12:49:45.041Z,29.77
2022-12-01T12:51:50.338Z,22.05
2022-12-01T12:53:54.857Z,22.88
2022-12-01T12:56:00.123Z,24.60
2022-12-01T12:58:11.463Z,22.15
2022-12-01T13:00:18.042Z,22.77
2022-12-01T13:02:31.747Z,27.17
2022-12-01T13:04:42.101Z,23.13
2022-12-01T13:06:47.313Z,24.05
2022-12-01T13:08:51.585Z,23.63
2022-12-01T13:10:59.787Z,24.05
2022-12-01T13:13:06.946Z,22.83
2022-12-01T13:15:14.110Z,24.30
2022-12-01T13:17:20.760Z,24.50
2022-12-01T13:19:26.054Z,24.73
2022-12-01T13:21:27.523Z,23.83
2022-12-01T13:23:29.172Z,26.20
2022-12-01T13:25:38.125Z,24.83
2022-12-01T13:27:40.423Z,30.23
2022-12-01T13:29:45.517Z,24.10
2022-12-01T13:31:48.595Z,21.25
2022-12-01T13:33:58.028Z,25.73
2022-12-01T13:36:23.026Z,26.70
2022-12-01T13:38:30.549Z,22.20
2022-12-01T13:42:34.192Z,25.40
2022-12-01T13:44:38.750Z,24.95
2022-12-01T13:46:42.959Z,25.33
2022-12-01T13:48:46.918Z,22.40
2022-12-01T13:50:58.920Z,24.88
2022-12-01T13:53:09.387Z,21.95
2022-12-01T13:55:11.094Z,21.25
2022-12-01T13:57:13.904Z,22.58
2022-12-01T13:59:33.938Z,23.48
2022-12-01T14:01:43.370Z,23.08
2022-12-01T14:04:03.601Z,22.63
2022-12-01T14:06:09.396Z,24.48
2022-12-01T14:08:23.192Z,20.63
2022-12-01T14:10:34.172Z,26.08
2022-12-01T14:12:37.738Z,22.23
2022-12-01T14:14:40.621Z,23.88
2022-12-01T14:16:49.956Z,21.98
2022-12-01T14:18:54.296Z,23.15
2022-12-01T14:20:55.947Z,23.98
2022-12-01T14:23:13.165Z,21.00
2022-12-01T14:25:20.574Z,21.38
2022-12-01T14:27:35.777Z,21.13
2022-12-01T14:29:43.143Z,22.40
2022-12-01T14:31:46.347Z,22.08
2022-12-01T14:33:52.782Z,21.58
2022-12-01T14:35:57.681Z,21.70
2022-12-01T14:37:59.326Z,22.85
2022-12-01T14:40:06.247Z,23.50
2022-12-01T14:42:51.412Z,22.17
2022-12-01T14:44:54.818Z,22.55
2022-12-01T14:47:13.311Z,21.90
2022-12-01T14:49:26.717Z,25.20
2022-12-01T14:51:32.292Z,26.40
2022-12-01T14:53:45.916Z,21.85
2022-12-01T14:55:59.901Z,23.67
2022-12-01T14:58:06.134Z,22.15
2022-12-01T15:00:12.437Z,24.27
2022-12-01T15:02:13.973Z,25.13
2022-12-01T15:04:15.605Z,21.58
2022-12-01T15:06:23.675Z,23.85
2022-12-01T15:08:41.875Z,22.27
2022-12-01T15:10:50.350Z,26.20
2022-12-01T15:12:54.971Z,21.15
2022-12-01T15:14:56.251Z,21.98
2022-12-01T15:16:57.970Z,22.33
2022-12-01T15:18:59.421Z,23.08
2022-12-01T15:21:02.989Z,22.80
2022-12-01T15:23:14.648Z,22.05
2022-12-01T15:25:17.175Z,24.90
2022-12-01T15:27:36.325Z,25.63
2022-12-01T15:29:44.728Z,23.67
2022-12-01T15:31:50.815Z,24.35
2022-12-01T15:33:52.959Z,24.25
2022-12-01T15:35:54.516Z,24.23
2022-12-01T15:37:56.460Z,22.92
2022-12-01T15:40:43.465Z,24.10
2022-12-01T15:42:34.831Z,23.80
2022-12-01T15:44:36.638Z,24.17
2022-12-01T15:46:37.961Z,23.42
2022-12-01T15:48:39.564Z,24.02
2022-12-01T15:50:46.294Z,22.92
2022-12-01T15:52:47.952Z,25.02
2022-12-01T15:54:50.123Z,25.52
2022-12-01T15:56:53.106Z,23.40
2022-12-01T15:58:56.636Z,24.27
2022-12-01T16:00:59.652Z,22.58
2022-12-01T16:03:02.147Z,23.27
2022-12-01T16:05:03.585Z,22.92
2022-12-01T16:07:06.673Z,21.85
2022-12-01T16:09:22.698Z,23.80
2022-12-01T16:11:24.048Z,21.90
2022-12-01T16:13:44.495Z,22.02
2022-12-01T16:15:45.838Z,22.02
2022-12-01T16:17:48.737Z,23.80
2022-12-01T16:20:09.989Z,24.42
2022-12-01T16:22:11.297Z,20.63
2022-12-01T16:24:16.084Z,22.27
2022-12-01T16:26:17.445Z,23.20
2022-12-01T16:28:24.073Z,21.88
2022-12-01T16:30:26.857Z,20.20
2022-12-01T16:32:40.725Z,21.88
2022-12-01T16:34:46.613Z,21.23
2022-12-01T16:36:49.361Z,21.92
2022-12-01T16:38:50.655Z,21.75
2022-12-01T16:40:56.552Z,21.25
2022-12-01T16:42:57.970Z,23.33
2022-12-01T16:44:59.554Z,23.33
2022-12-01T16:47:00.895Z,22.77
2022-12-01T16:49:02.271Z,24.02
2022-12-01T16:51:04.674Z,20.55
2022-12-01T16:53:06.023Z,23.33
2022-12-01T16:55:27.464Z,21.95
2022-12-01T16:57:29.117Z,25.45
2022-12-01T16:59:30.994Z,26.25
2022-12-01T17:01:32.564Z,21.10
2022-12-01T17:03:34.183Z,21.52
2022-12-01T17:05:35.520Z,22.70
2022-12-01T17:07:36.949Z,26.15
2022-12-01T17:09:38.313Z,25.33
2022-12-01T17:11:39.640Z,22.08
2022-12-01T17:13:41.314Z,23.70
2022-12-01T17:15:43.538Z,24.52
2022-12-01T17:17:44.973Z,25.73
2022-12-01T17:19:46.241Z,22.98
2022-12-01T17:21:47.569Z,23.23
2022-12-01T17:23:48.864Z,24.23
2022-12-01T17:25:50.208Z,24.08
2022-12-01T17:27:51.615Z,23.70
2022-12-01T17:29:53.349Z,24.33
2022-12-01T17:31:54.685Z,24.05
2022-12-01T17:33:55.972Z,24.08
2022-12-01T17:36:07.745Z,23.00
2022-12-01T17:38:09.090Z,23.77
2022-12-01T17:40:13.745Z,22.63
2022-12-01T17:42:15.057Z,25.67
2022-12-01T17:44:16.362Z,26.15
2022-12-01T17:46:17.819Z,25.40
2022-12-01T17:48:19.281Z,22.92
2022-12-01T17:50:20.632Z,24.13
2022-12-01T17:52:26.720Z,27.70
2022-12-01T17:54:29.605Z,24.05
2022-12-01T17:56:31.010Z,23.30
2022-12-01T17:58:32.579Z,25.83
2022-12-01T18:00:36.043Z,26.23
2022-12-01T18:02:37.416Z,25.73
2022-12-01T18:04:38.909Z,24.63
2022-12-01T18:06:40.566Z,23.65
2022-12-01T18:08:42.048Z,26.75
2022-12-01T18:10:43.364Z,23.35
2022-12-01T18:12:45.860Z,25.60
2022-12-01T18:14:47.454Z,22.88
2022-12-01T18:16:49.034Z,25.02
2022-12-01T18:18:50.818Z,24.77
2022-12-01T18:20:52.175Z,26.02
2022-12-01T18:22:53.475Z,26.13
2022-12-01T18:24:56.233Z,25.83
2022-12-01T18:26:57.568Z,23.63
2022-12-01T18:29:00.605Z,26.35
2022-12-01T18:31:05.057Z,30.83
2022-12-01T18:33:10.888Z,27.45
2022-12-01T18:35:12.228Z,25.90
2022-12-01T18:37:13.607Z,25.73
2022-12-01T18:39:14.953Z,23.92
2022-12-01T18:41:16.597Z,27.63
2022-12-01T18:43:17.896Z,24.55
2022-12-01T18:45:21.176Z,28.23
2022-12-01T18:47:22.866Z,24.30
2022-12-01T18:49:24.563Z,24.70
2022-12-01T18:51:26.047Z,23.38
2022-12-01T18:53:27.318Z,26.27
2022-12-01T18:55:28.639Z,24.35
2022-12-01T18:57:30.371Z,27.55
2022-12-01T18:59:31.763Z,25.60
2022-12-01T19:01:36.154Z,27.10
2022-12-01T19:03:37.602Z,29.63
2022-12-01T19:05:39.477Z,26.65
2022-12-01T19:07:40.810Z,26.77
2022-12-01T19:09:42.353Z,26.80
2022-12-01T19:11:43.955Z,25.35
2022-12-01T19:13:45.703Z,24.60
2022-12-01T19:15:47.090Z,24.67
2022-12-01T19:17:48.556Z,23.90
2022-12-01T19:19:49.823Z,24.67
2022-12-01T19:21:51.215Z,26.20
2022-12-01T19:23:52.760Z,25.65
2022-12-01T19:25:54.137Z,26.30
2022-12-01T19:27:55.434Z,28.63
2022-12-01T19:29:56.769Z,28.90
2022-12-01T19:31:58.247Z,26.17
2022-12-01T19:33:59.561Z,25.73
2022-12-01T19:36:11.579Z,28.35
2022-12-01T19:38:12.885Z,27.63
2022-12-01T19:40:14.325Z,23.95
2022-12-01T19:42:15.626Z,26.13
2022-12-01T19:44:17.039Z,25.92
2022-12-01T19:46:19.960Z,25.92
2022-12-01T19:48:21.362Z,26.77
2022-12-01T19:50:25.491Z,26.55
2022-12-01T19:52:26.848Z,26.63
2022-12-01T19:54:30.378Z,26.92
2022-12-01T19:56:32.215Z,25.02
2022-12-01T19:58:33.714Z,27.83
2022-12-01T20:00:35.206Z,27.95
2022-12-01T20:02:36.685Z,29.05
2022-12-01T20:04:41.088Z,27.38
2022-12-01T20:06:42.565Z,25.45
2022-12-01T20:08:44.200Z,26.75
2022-12-01T20:10:48.957Z,27.48
2022-12-01T20:12:50.500Z,28.48
2022-12-01T20:14:52.316Z,27.02
2022-12-01T20:16:57.065Z,30.48
2022-12-01T20:19:02.417Z,36.03
2022-12-01T20:21:03.705Z,26.90
2022-12-01T20:23:04.982Z,28.20
2022-12-01T20:25:06.629Z,25.67
2022-12-01T20:27:08.517Z,28.83
2022-12-01T20:29:11.594Z,29.27
2022-12-01T20:31:14.615Z,27.27
2022-12-01T20:33:16.653Z,27.83
2022-12-01T20:35:17.999Z,27.88
2022-12-01T20:37:19.381Z,25.70
2022-12-01T20:39:20.863Z,25.40
2022-12-01T20:41:22.673Z,25.55
2022-12-01T20:43:24.066Z,26.65
2022-12-01T20:45:25.416Z,26.08
2022-12-01T20:47:26.801Z,27.88
2022-12-01T20:49:28.101Z,24.98
2022-12-01T20:51:33.262Z,25.65
2022-12-01T20:53:35.446Z,27.45
2022-12-01T20:55:37.294Z,26.75
2022-12-01T20:57:38.679Z,25.98
2022-12-01T20:59:40.075Z,26.33
2022-12-01T21:01:41.464Z,28.75
2022-12-01T21:03:44.235Z,26.33
2022-12-01T21:05:45.510Z,30.52
2022-12-01T21:07:46.905Z,25.67
2022-12-01T21:09:48.493Z,27.77
2022-12-01T21:12:09.534Z,26.88
2022-12-01T21:16:32.413Z,25.20
2022-12-01T21:18:45.968Z,27.20
2022-12-01T21:20:48.045Z,28.25
2022-12-01T21:22:50.012Z,28.30
2022-12-01T21:24:51.874Z,30.10
2022-12-01T21:27:01.521Z,26.42
2022-12-01T21:29:10.632Z,26.85
2022-12-01T21:31:13.788Z,28.98
2022-12-01T21:33:31.008Z,27.10
2022-12-01T21:35:32.380Z,27.08
2022-12-01T21:37:33.836Z,28.48
2022-12-01T21:39:38.351Z,28.10
2022-12-01T21:41:39.701Z,26.58
2022-12-01T21:43:41.092Z,27.65
2022-12-01T21:45:42.497Z,26.48
2022-12-01T21:47:43.843Z,32.53
2022-12-01T21:49:45.423Z,27.92
2022-12-01T21:51:47.477Z,28.75
2022-12-01T21:53:49.948Z,27.00
2022-12-01T21:55:51.308Z,26.88
2022-12-01T21:57:53.342Z,25.60
2022-12-01T21:59:57.879Z,27.85
2022-12-01T22:02:19.212Z,28.67
2022-12-01T22:04:21.904Z,29.08
2022-12-01T22:06:43.326Z,25.65
2022-12-01T22:08:45.886Z,28.50
2022-12-01T22:11:18.591Z,27.90
2022-12-01T22:13:22.095Z,26.25
2022-12-01T22:15:30.412Z,26.63
2022-12-01T22:17:31.864Z,27.13
2022-12-01T22:19:42.325Z,27.98
2022-12-01T22:21:47.735Z,26.90
2022-12-01T22:23:49.759Z,26.50
2022-12-01T22:25:51.229Z,29.17
2022-12-01T22:27:52.555Z,27.13
2022-12-01T22:29:58.524Z,27.08
2022-12-01T22:32:11.914Z,25.70
2022-12-01T22:34:14.820Z,27.88
2022-12-01T22:36:25.676Z,28.80
2022-12-01T22:40:28.269Z,27.52
2022-12-01T22:42:31.014Z,28.10
2022-12-01T22:44:32.346Z,26.17
2022-12-01T22:46:34.561Z,26.90
2022-12-01T22:48:45.539Z,28.77
2022-12-01T22:52:53.849Z,37.15
2022-12-01T22:54:55.160Z,26.08
2022-12-01T22:56:56.410Z,28.35
2022-12-01T22:58:57.904Z,24.30
2022-12-01T23:01:07.562Z,26.27
2022-12-01T23:03:11.088Z,26.83
2022-12-01T23:05:15.089Z,28.42
2022-12-01T23:07:35.515Z,28.08
2022-12-01T23:09:39.851Z,28.00
2022-12-01T23:11:44.343Z,29.25
2022-12-01T23:13:45.605Z,26.90
2022-12-01T23:15:48.245Z,29.95
2022-12-01T23:17:50.253Z,27.13
2022-12-01T23:19:52.729Z,26.63
2022-12-01T23:21:54.345Z,27.10
2022-12-01T23:23:55.695Z,27.23
2022-12-01T23:25:57.505Z,26.00
2022-12-01T23:28:00.186Z,26.52
2022-12-01T23:30:01.465Z,26.75
2022-12-01T23:32:02.848Z,25.67
2022-12-01T23:34:09.279Z,26.13
2022-12-01T23:36:18.048Z,24.92
2022-12-01T23:38:20.922Z,25.55
2022-12-01T23:40:33.448Z,25.33
2022-12-01T23:42:34.761Z,25.83
2022-12-01T23:44:38.302Z,27.40
2022-12-01T23:46:39.737Z,24.58
2022-12-01T23:49:00.004Z,26.15
2022-12-01T23:51:01.675Z,26.10
2022-12-01T23:53:02.951Z,27.98
2022-12-01T23:55:23.064Z,27.35
2022-12-01T23:57:25.085Z,25.70
2022-12-01T23:59:27.173Z,24.88
